CheckWX is a tool to help pilots better visualize weather data.  It is not intended as a substitute for an official pre-flight weather briefing.

16:56:58 UTC

FAEL TAF
Ben Schoeman Airport
East London, South Africa
TAF FAEL 180900Z 1810/1818 VRB02KT 9999 SCT016 TX22/1812Z TN18/1818Z BECMG 1812/1814 06018KT 9999 SCT020

Jun-18@
10:00 UTC

Jun-18 @ 10:00 UTC

Jun-18@
12:00 UTC

Jun-18 @ 12:00 UTC

TAF FAEL 180900Z 1810/1818 VRB02KT 9999 SCT016 TX22/1812Z TN18/1818Z

Expired

Wind
  • Variable at 2 KTS
Cloud Levels
  • Scattered at 1,600' AGL

Jun-18@
12:00 UTC

Jun-18 @ 12:00 UTC

Jun-18@
18:00 UTC

Jun-18 @ 18:00 UTC

BECMG 1812/1814 06018KT 9999 SCT020

Becoming

Becoming Conditions expected by Tue, Jun 18, 2019 @ 14:00 UTC

Wind
  • 060° at 18 KTS
Cloud Levels
  • Scattered at 2,000' AGL